createdAt,value
2018-11-10T00:00:12.030Z,623.9
2018-11-10T00:01:14.190Z,623.6
2018-11-10T00:02:16.613Z,624
2018-11-10T00:03:18.763Z,624.2
2018-11-10T00:04:21.469Z,624.2
2018-11-10T00:05:23.999Z,624.1
2018-11-10T00:06:26.174Z,624.1
2018-11-10T00:07:28.062Z,624.2
2018-11-10T00:08:31.141Z,624.3
2018-11-10T00:09:33.292Z,624.4
2018-11-10T00:10:35.172Z,624.6
2018-11-10T00:11:37.329Z,625.3
2018-11-10T00:12:39.758Z,625.7
2018-11-10T00:13:41.664Z,625.8
2018-11-10T00:14:44.086Z,626.3
2018-11-10T00:15:45.967Z,626.4
2018-11-10T00:16:48.406Z,626.4
2018-11-10T00:17:50.841Z,626.4
2018-11-10T00:18:52.706Z,626.8
2018-11-10T00:19:54.864Z,626.8
2018-11-10T00:20:56.744Z,627.1
2018-11-10T00:21:59.183Z,626.7
2018-11-10T00:23:01.353Z,627.1
2018-11-10T00:24:03.236Z,627.2
2018-11-10T00:25:05.666Z,626.8
2018-11-10T00:26:08.099Z,626.9
2018-11-10T00:27:10.530Z,626.5
2018-11-10T00:28:12.410Z,626.5
2018-11-10T00:29:14.843Z,626.1
2018-11-10T00:30:16.472Z,625.7
2018-11-10T00:31:18.633Z,626
2018-11-10T00:32:20.222Z,625.7
2018-11-10T00:33:22.375Z,625.7
2018-11-10T00:34:24.255Z,626.2
2018-11-10T00:35:25.925Z,626.8
2018-11-10T00:36:28.058Z,626.7
2018-11-10T00:37:30.489Z,626.8
2018-11-10T00:38:32.646Z,627
2018-11-10T00:39:34.806Z,627.4
2018-11-10T00:40:36.968Z,627.4
2018-11-10T00:41:39.103Z,627.5
2018-11-10T00:42:40.969Z,627.2
2018-11-10T00:43:43.401Z,627.3
2018-11-10T00:44:45.264Z,627.3
2018-11-10T00:45:47.436Z,627
2018-11-10T00:46:49.333Z,627
2018-11-10T00:47:51.474Z,627.1
2018-11-10T00:48:52.800Z,627
2018-11-10T00:49:54.969Z,627.1
2018-11-10T00:50:56.842Z,627.3
2018-11-10T00:51:59.277Z,627.6
2018-11-10T00:53:01.715Z,627.6
2018-11-10T00:54:03.573Z,627.8
2018-11-10T00:55:05.451Z,627.5
2018-11-10T00:56:07.051Z,628.2
2018-11-10T00:57:09.210Z,628.1
2018-11-10T00:58:11.093Z,627.9
2018-11-10T00:59:13.258Z,628.4
2018-11-10T01:00:15.417Z,628.4
2018-11-10T01:01:17.316Z,628.6
2018-11-10T01:02:19.450Z,628.6
2018-11-10T01:03:21.887Z,628.4
2018-11-10T01:04:23.748Z,628.1
2018-11-10T01:05:26.244Z,628.2
2018-11-10T01:06:28.144Z,628.5
2018-11-10T01:07:30.041Z,628.2
2018-11-10T01:08:32.468Z,628.1
2018-11-10T01:09:34.101Z,628.2
2018-11-10T01:10:36.262Z,628.2
2018-11-10T01:11:38.730Z,628.4
2018-11-10T01:12:40.623Z,628.5
2018-11-10T01:13:42.777Z,628.6
2018-11-10T01:14:44.649Z,628.6
2018-11-10T01:15:47.072Z,628.9
2018-11-10T01:16:48.707Z,629.1
2018-11-10T01:17:50.604Z,629.5
2018-11-10T01:18:53.024Z,629.4
2018-11-10T01:19:55.194Z,629.6
2018-11-10T01:20:57.339Z,630.1
2018-11-10T01:21:59.764Z,630
2018-11-10T01:23:01.907Z,629.7
2018-11-10T01:24:04.339Z,630.2
2018-11-10T01:25:06.222Z,629.8
2018-11-10T01:26:08.374Z,630.3
2018-11-10T01:27:10.802Z,630.5
2018-11-10T01:28:12.956Z,630.2
2018-11-10T01:29:15.367Z,629.4
2018-11-10T01:30:17.519Z,629.3
2018-11-10T01:31:19.948Z,630.1
2018-11-10T01:32:22.377Z,629.6
2018-11-10T01:33:24.545Z,630.1
2018-11-10T01:34:26.153Z,629.8
2018-11-10T01:35:28.590Z,630.9
2018-11-10T01:36:30.743Z,631.2
2018-11-10T01:37:33.178Z,631.1
2018-11-10T01:38:35.597Z,631
2018-11-10T01:39:37.779Z,631.2
2018-11-10T01:40:39.676Z,630.6
2018-11-10T01:41:42.096Z,630.9
2018-11-10T01:42:44.536Z,631.4
2018-11-10T01:43:46.675Z,631.1
2018-11-10T01:44:48.554Z,631.5
2018-11-10T01:45:50.988Z,630.7
2018-11-10T01:46:53.265Z,631
2018-11-10T01:47:55.758Z,630.9
2018-11-10T01:48:58.192Z,631.2
2018-11-10T01:50:00.343Z,630.9
2018-11-10T01:51:02.503Z,630.8
2018-11-10T01:52:04.655Z,631.1
2018-11-10T01:53:06.807Z,631.1
2018-11-10T01:54:08.969Z,631.4
2018-11-10T01:55:10.859Z,630.9
2018-11-10T01:56:13.054Z,631.1
2018-11-10T01:57:14.944Z,631.6
2018-11-10T01:58:16.846Z,631.3
2018-11-10T01:59:19.032Z,631
2018-11-10T02:00:20.937Z,631
2018-11-10T02:01:23.091Z,630.7
2018-11-10T02:02:24.957Z,630.9
2018-11-10T02:03:27.112Z,630.3
2018-11-10T02:04:28.978Z,630.5
2018-11-10T02:05:31.409Z,630.1
2018-11-10T02:06:33.527Z,630.6
2018-11-10T02:07:35.723Z,630.5
2018-11-10T02:08:37.604Z,630.8
2018-11-10T02:09:39.769Z,630.3
2018-11-10T02:10:41.903Z,630
2018-11-10T02:11:44.061Z,630.6
2018-11-10T02:12:46.219Z,630.8
2018-11-10T02:13:48.369Z,630
2018-11-10T02:14:50.244Z,630.2
2018-11-10T02:15:52.392Z,630.4
2018-11-10T02:16:54.280Z,630.4
2018-11-10T02:17:56.441Z,630.7
2018-11-10T02:18:58.882Z,630.8
2018-11-10T02:20:01.309Z,631.2
2018-11-10T02:21:03.187Z,631.2
2018-11-10T02:22:05.091Z,631.4
2018-11-10T02:23:07.527Z,631.6
2018-11-10T02:24:09.417Z,631.5
2018-11-10T02:25:11.577Z,631.2
2018-11-10T02:26:13.746Z,631.5
2018-11-10T02:27:16.175Z,631.5
2018-11-10T02:28:18.319Z,631.1
2018-11-10T02:29:20.469Z,631.6
2018-11-10T02:30:22.626Z,631.9
2018-11-10T02:31:25.048Z,632.1
2018-11-10T02:32:27.201Z,632.1
2018-11-10T02:33:29.349Z,632.5
2018-11-10T02:34:31.509Z,632.6
2018-11-10T02:35:33.667Z,632.5
2018-11-10T02:36:36.084Z,632.9
2018-11-10T02:37:38.518Z,633.3
2018-11-10T02:38:41.081Z,633.1
2018-11-10T02:39:43.231Z,633.2
2018-11-10T02:40:45.110Z,633.5
2018-11-10T02:41:46.728Z,633.6
2018-11-10T02:42:49.143Z,633.6
2018-11-10T02:43:51.306Z,633.6
2018-11-10T02:44:53.200Z,633.6
2018-11-10T02:45:55.624Z,633.9
2018-11-10T02:46:57.784Z,634.3
2018-11-10T02:47:59.945Z,634.1
2018-11-10T02:49:02.104Z,634.2
2018-11-10T02:50:04.533Z,633.9
2018-11-10T02:51:06.687Z,634
2018-11-10T02:52:09.123Z,634.1
2018-11-10T02:53:10.990Z,633.9
2018-11-10T02:54:13.155Z,634.3
2018-11-10T02:55:15.598Z,634
2018-11-10T02:56:17.763Z,633.9
2018-11-10T02:57:20.195Z,633.6
2018-11-10T02:58:22.325Z,633.7
2018-11-10T02:59:24.476Z,633.4
2018-11-10T03:00:26.359Z,633.7
2018-11-10T03:01:28.219Z,633.7
2018-11-10T03:02:30.387Z,633.6
2018-11-10T03:03:32.541Z,633.9
2018-11-10T03:04:34.965Z,633.9
2018-11-10T03:05:37.116Z,634.2
2018-11-10T03:06:39.007Z,634.5
2018-11-10T03:07:41.166Z,634.2
2018-11-10T03:08:43.599Z,634.5
2018-11-10T03:09:45.487Z,634.4
2018-11-10T03:10:48.535Z,634.8
2018-11-10T03:11:50.493Z,634.6
2018-11-10T03:12:52.981Z,634.5
2018-11-10T03:13:55.385Z,634.6
2018-11-10T03:14:57.553Z,634.5
2018-11-10T03:15:59.441Z,634.4
2018-11-10T03:17:01.317Z,634.4
2018-11-10T03:18:03.747Z,634.2
2018-11-10T03:19:05.908Z,634
2018-11-10T03:20:08.323Z,634.2
2018-11-10T03:21:10.479Z,634.9
2018-11-10T03:22:12.914Z,634.6
2018-11-10T03:23:14.794Z,634.7
2018-11-10T03:24:16.968Z,635
2018-11-10T03:25:19.107Z,635
2018-11-10T03:26:21.259Z,635.3
2018-11-10T03:27:23.396Z,635.3
2018-11-10T03:28:25.829Z,635.4
2018-11-10T03:29:28.269Z,635.5
2018-11-10T03:30:30.429Z,635.7
2018-11-10T03:31:32.326Z,635.6
2018-11-10T03:32:34.471Z,635.6
2018-11-10T03:33:36.359Z,635.5
2018-11-10T03:34:38.510Z,635.5
2018-11-10T03:35:40.394Z,635.4
2018-11-10T03:36:42.823Z,635.5
2018-11-10T03:37:44.999Z,635.7
2018-11-10T03:38:47.425Z,635.6
2018-11-10T03:39:49.020Z,635.1
2018-11-10T03:40:51.177Z,635.3
2018-11-10T03:41:53.609Z,635.4
2018-11-10T03:42:55.223Z,635.6
2018-11-10T03:43:56.845Z,635.5
2018-11-10T03:44:58.989Z,635.6
2018-11-10T03:46:01.403Z,635.6
2018-11-10T03:47:03.040Z,635.5
2018-11-10T03:48:05.461Z,635.6
2018-11-10T03:49:07.044Z,635.5
2018-11-10T03:50:09.189Z,635.6
2018-11-10T03:51:11.054Z,635.8
2018-11-10T03:52:12.932Z,635.6
2018-11-10T03:53:15.373Z,636
2018-11-10T03:54:17.537Z,635.6
2018-11-10T03:55:19.974Z,636.1
2018-11-10T03:56:22.422Z,635.4
2018-11-10T03:57:24.305Z,635.5
2018-11-10T03:58:25.622Z,635.4
2018-11-10T03:59:27.507Z,635.5
2018-11-10T04:00:29.672Z,635.3
2018-11-10T04:01:31.570Z,635.1
2018-11-10T04:02:33.995Z,635.8
2018-11-10T04:03:36.434Z,635.8
2018-11-10T04:04:38.864Z,635.9
2018-11-10T04:05:40.748Z,636.1
2018-11-10T04:06:43.186Z,636.3
2018-11-10T04:07:45.344Z,636.4
2018-11-10T04:08:47.771Z,636.5
2018-11-10T04:09:49.920Z,636.5
2018-11-10T04:10:52.356Z,636.3
2018-11-10T04:11:54.775Z,636.5
2018-11-10T04:12:57.194Z,636.5
2018-11-10T04:13:59.348Z,636.7
2018-11-10T04:15:01.783Z,637
2018-11-10T04:16:04.208Z,637
2018-11-10T04:17:05.533Z,636.8
2018-11-10T04:18:07.957Z,636.7
2018-11-10T04:19:10.389Z,636.6
2018-11-10T04:20:12.549Z,636.8
2018-11-10T04:21:14.699Z,637
2018-11-10T04:22:17.159Z,636.9
2018-11-10T04:23:19.040Z,637.3
2018-11-10T04:24:21.471Z,637.3
2018-11-10T04:25:23.353Z,637.4
2018-11-10T04:26:25.777Z,637
2018-11-10T04:27:27.938Z,636.6
2018-11-10T04:28:29.807Z,636.9
2018-11-10T04:29:32.234Z,637.1
2018-11-10T04:30:34.657Z,636.7
2018-11-10T04:31:37.109Z,636.8
2018-11-10T04:32:39.538Z,636.9
2018-11-10T04:33:41.968Z,636.8
2018-11-10T04:34:43.560Z,636.6
2018-11-10T04:35:45.729Z,636.8
2018-11-10T04:36:47.886Z,637
2018-11-10T04:37:50.308Z,637.1
2018-11-10T04:38:52.461Z,637.4
2018-11-10T04:39:54.358Z,636.7
2018-11-10T04:40:56.208Z,637.4
2018-11-10T04:41:58.078Z,637.2
2018-11-10T04:42:59.966Z,637.4
2018-11-10T04:44:02.433Z,637.6
2018-11-10T04:45:04.588Z,637.5
2018-11-10T04:46:07.022Z,637.6
2018-11-10T04:47:09.152Z,637.9
2018-11-10T04:48:11.320Z,637.3
2018-11-10T04:49:13.468Z,637.5
2018-11-10T04:50:15.607Z,637.5
2018-11-10T04:51:17.495Z,638
2018-11-10T04:52:19.657Z,637.7
2018-11-10T04:53:21.546Z,638
2018-11-10T04:54:23.400Z,638.1
2018-11-10T04:55:25.568Z,638.4
2018-11-10T04:56:27.743Z,638.2
2018-11-10T04:57:30.153Z,638.2
2018-11-10T04:58:32.044Z,638.1
2018-11-10T04:59:34.475Z,638.1
2018-11-10T05:00:36.611Z,637.7
2018-11-10T05:01:39.317Z,638.1
2018-11-10T05:02:41.179Z,638.2
2018-11-10T05:03:42.800Z,638.2
2018-11-10T05:04:45.226Z,638.3
2018-11-10T05:05:46.815Z,638.2
2018-11-10T05:06:48.396Z,638.2
2018-11-10T05:07:50.593Z,638.2
2018-11-10T05:08:52.734Z,638.2
2018-11-10T05:09:54.894Z,638.1
2018-11-10T05:10:56.779Z,638
2018-11-10T05:11:59.208Z,637.9
2018-11-10T05:13:01.372Z,637.7
2018-11-10T05:14:03.808Z,637.4
2018-11-10T05:15:06.228Z,637.7
2018-11-10T05:16:08.385Z,637.9
2018-11-10T05:17:10.244Z,638
2018-11-10T05:18:12.398Z,638
2018-11-10T05:19:14.571Z,638.4
2018-11-10T05:20:16.720Z,638.6
2018-11-10T05:21:19.157Z,638.9
2018-11-10T05:22:21.588Z,638.9
2018-11-10T05:23:24.022Z,639
2018-11-10T05:24:26.165Z,638.6
2018-11-10T05:25:28.059Z,638.6
2018-11-10T05:26:29.709Z,638.8
2018-11-10T05:27:31.850Z,638.6
2018-11-10T05:28:34.012Z,638.4
2018-11-10T05:29:36.756Z,638.5
2018-11-10T05:30:38.924Z,638.6
2018-11-10T05:31:41.358Z,638.5
2018-11-10T05:32:43.495Z,638.3
2018-11-10T05:33:45.920Z,638.4
2018-11-10T05:34:47.786Z,638.8
2018-11-10T05:35:50.217Z,639
2018-11-10T05:36:52.645Z,638.8
2018-11-10T05:37:54.808Z,638.7
2018-11-10T05:38:57.239Z,639
2018-11-10T05:39:59.409Z,639.1
2018-11-10T05:41:01.552Z,639
2018-11-10T05:42:03.700Z,638.6
2018-11-10T05:43:05.578Z,638.9
2018-11-10T05:44:07.720Z,638.7
2018-11-10T05:45:09.878Z,638.9
2018-11-10T05:46:12.008Z,638.7
2018-11-10T05:47:13.971Z,638.7
2018-11-10T05:48:16.400Z,638.8
2018-11-10T05:49:18.363Z,638.7
2018-11-10T05:50:20.519Z,638.9
2018-11-10T05:51:22.669Z,639.1
2018-11-10T05:52:25.095Z,639.1
2018-11-10T05:53:26.696Z,638.8
2018-11-10T05:54:28.858Z,638.6
2018-11-10T05:55:31.023Z,638.7
2018-11-10T05:56:32.934Z,638.7
2018-11-10T05:57:35.084Z,638.7
2018-11-10T05:58:37.523Z,638.8
2018-11-10T05:59:39.687Z,638.9
2018-11-10T06:00:42.116Z,638.9
2018-11-10T06:01:44.000Z,639.1
2018-11-10T06:02:46.421Z,639
2018-11-10T06:03:48.568Z,639.1
2018-11-10T06:04:50.445Z,638.5
2018-11-10T06:05:52.296Z,639
2018-11-10T06:06:54.719Z,639
2018-11-10T06:07:57.149Z,639.2
2018-11-10T06:08:59.627Z,639.3
2018-11-10T06:10:03.501Z,639.3
2018-11-10T06:11:05.171Z,639
2018-11-10T06:12:07.354Z,639.3
2018-11-10T06:13:09.784Z,639.3
2018-11-10T06:14:12.204Z,639.2
2018-11-10T06:15:14.637Z,639.6
2018-11-10T06:16:17.158Z,639.5
2018-11-10T06:17:19.335Z,639.7
2018-11-10T06:18:21.252Z,640
2018-11-10T06:19:22.875Z,639.7
2018-11-10T06:20:24.799Z,639.4
2018-11-10T06:21:27.238Z,639.6
2018-11-10T06:22:29.668Z,639.5
2018-11-10T06:23:31.550Z,640.2
2018-11-10T06:24:33.988Z,640.4
2018-11-10T06:25:36.149Z,640.1
2018-11-10T06:26:38.588Z,640.6
2018-11-10T06:27:40.209Z,640.1
2018-11-10T06:28:42.395Z,640.2
2018-11-10T06:29:44.552Z,640.2
2018-11-10T06:30:46.468Z,639.8
2018-11-10T06:31:48.374Z,639.8
2018-11-10T06:32:50.836Z,639
2018-11-10T06:33:53.007Z,639.5
2018-11-10T06:34:54.612Z,639.3
2018-11-10T06:35:56.510Z,639.4
2018-11-10T06:36:58.700Z,639.5
2018-11-10T06:38:01.180Z,639.5
2018-11-10T06:39:03.612Z,639.1
2018-11-10T06:40:05.539Z,639.1
2018-11-10T06:41:08.300Z,639.4
2018-11-10T06:42:10.394Z,639.5
2018-11-10T06:43:12.812Z,639.2
2018-11-10T06:44:15.275Z,639.5
2018-11-10T06:45:17.708Z,640
2018-11-10T06:46:20.169Z,640.1
2018-11-10T06:47:22.334Z,640.4
2018-11-10T06:48:24.801Z,640.4
2018-11-10T06:49:26.950Z,640.3
2018-11-10T06:50:29.107Z,640.4
2018-11-10T06:51:31.568Z,640.4
2018-11-10T06:52:33.712Z,640.3
2018-11-10T06:53:35.885Z,640.9
2018-11-10T06:54:38.033Z,640.4
2018-11-10T06:55:39.923Z,640.7
2018-11-10T06:56:42.348Z,640.3
2018-11-10T06:57:44.779Z,640.2
2018-11-10T06:58:47.210Z,640.4
2018-11-10T06:59:49.355Z,640.5
2018-11-10T07:00:51.528Z,640.5
2018-11-10T07:01:53.717Z,640.5
2018-11-10T07:02:55.876Z,640.4
2018-11-10T07:03:58.356Z,640.4
2018-11-10T07:05:00.798Z,640.4
2018-11-10T07:06:02.956Z,640.6
2018-11-10T07:07:04.829Z,640.2
2018-11-10T07:08:06.971Z,640.6
2018-11-10T07:09:09.126Z,640.3
2018-11-10T07:10:11.551Z,640.4
2018-11-10T07:11:13.989Z,640.7
2018-11-10T07:12:15.882Z,640.7
2018-11-10T07:13:18.039Z,640.5
2018-11-10T07:14:20.165Z,640.5
2018-11-10T07:15:22.599Z,640.2
2018-11-10T07:16:25.037Z,640.1
2018-11-10T07:17:27.840Z,640.4
2018-11-10T07:18:30.055Z,640.4
2018-11-10T07:19:31.935Z,640.1
2018-11-10T07:20:34.370Z,640.2
2018-11-10T07:21:36.798Z,640.5
2018-11-10T07:22:39.250Z,640.3
2018-11-10T07:23:41.398Z,640.6
2018-11-10T07:24:43.644Z,640.5
2018-11-10T07:25:45.443Z,640.3
2018-11-10T07:26:47.595Z,640.5
2018-11-10T07:27:49.749Z,640.5
2018-11-10T07:28:52.179Z,640.7
2018-11-10T07:29:54.308Z,640.2
2018-11-10T07:30:56.461Z,640.1
2018-11-10T07:31:59.594Z,640
2018-11-10T07:33:02.077Z,639.7
2018-11-10T07:34:03.945Z,639.9
2018-11-10T07:35:06.095Z,639.8
2018-11-10T07:36:07.973Z,639.9
2018-11-10T07:37:10.439Z,639.7
2018-11-10T07:38:12.850Z,639.7
2018-11-10T07:39:15.294Z,639.8
2018-11-10T07:40:17.743Z,639.9
2018-11-10T07:41:19.885Z,639.7
2018-11-10T07:42:22.048Z,639.6
2018-11-10T07:43:24.210Z,639.5
2018-11-10T07:44:26.353Z,640
2018-11-10T07:45:28.248Z,639.3
2018-11-10T07:46:30.683Z,639.5
2018-11-10T07:47:32.578Z,639.5
2018-11-10T07:48:35.016Z,640
2018-11-10T07:49:37.189Z,639.8
2018-11-10T07:50:39.611Z,639.9
2018-11-10T07:51:42.047Z,640.4
2018-11-10T07:52:44.487Z,640.1
2018-11-10T07:53:46.643Z,640
2018-11-10T07:54:48.819Z,640.7
2018-11-10T07:55:51.266Z,640.8
2018-11-10T07:56:53.741Z,641
2018-11-10T07:57:56.171Z,640.7
2018-11-10T07:58:58.602Z,640.5
2018-11-10T08:00:01.077Z,640.7
2018-11-10T08:01:03.247Z,640.8
2018-11-10T08:02:05.771Z,640.8
2018-11-10T08:03:08.276Z,640.7
2018-11-10T08:04:09.940Z,640.6
2018-11-10T08:05:12.415Z,641.5
2018-11-10T08:06:14.297Z,641.6
2018-11-10T08:07:16.445Z,641.3
2018-11-10T08:08:18.879Z,641.5
2018-11-10T08:09:21.314Z,642
2018-11-10T08:10:23.201Z,641.3
2018-11-10T08:11:25.089Z,641.8
2018-11-10T08:12:26.980Z,641.7
2018-11-10T08:13:29.123Z,642.1
2018-11-10T08:14:31.289Z,642.1
2018-11-10T08:15:33.813Z,642.1
2018-11-10T08:16:35.979Z,641.9
2018-11-10T08:17:37.907Z,641.9
2018-11-10T08:18:41.014Z,642
2018-11-10T08:19:43.105Z,642
2018-11-10T08:20:45.549Z,642
2018-11-10T08:21:47.989Z,642.1
2018-11-10T08:22:49.870Z,642.3
2018-11-10T08:23:51.461Z,642.5
2018-11-10T08:24:54.170Z,642.4
2018-11-10T08:25:56.389Z,642.1
2018-11-10T08:26:58.839Z,642.4
2018-11-10T08:28:00.757Z,642.1
2018-11-10T08:29:02.958Z,642.1
2018-11-10T08:30:05.097Z,641.8
2018-11-10T08:31:07.673Z,641.6
2018-11-10T08:32:09.557Z,642.2
2018-11-10T08:33:11.448Z,641.8
2018-11-10T08:34:13.618Z,641.8
2018-11-10T08:35:15.811Z,642.2
2018-11-10T08:36:17.440Z,642.1
2018-11-10T08:37:19.892Z,642.2
2018-11-10T08:38:22.321Z,642.1
2018-11-10T08:39:24.832Z,642.5
2018-11-10T08:40:26.695Z,642.3
2018-11-10T08:41:28.848Z,642
2018-11-10T08:42:31.273Z,642.3
2018-11-10T08:43:33.412Z,642.3
2018-11-10T08:44:35.280Z,642.5
2018-11-10T08:45:37.411Z,642.7
2018-11-10T08:46:39.566Z,642.6
2018-11-10T08:47:41.150Z,642.7
2018-11-10T08:48:43.016Z,643.1
2018-11-10T08:49:45.780Z,642.9
2018-11-10T08:50:47.933Z,643.3
2018-11-10T08:51:50.109Z,643.3
2018-11-10T08:52:51.992Z,643.2
2018-11-10T08:53:54.431Z,643.4
2018-11-10T08:54:55.739Z,643.3
2018-11-10T08:55:58.171Z,643.3
2018-11-10T08:57:00.613Z,642.8
2018-11-10T08:58:02.584Z,643
2018-11-10T08:59:05.010Z,643
2018-11-10T09:00:07.502Z,642.8
2018-11-10T09:01:09.672Z,642.6
2018-11-10T09:02:11.320Z,642.6
2018-11-10T09:03:12.901Z,642.8
2018-11-10T09:04:15.073Z,642.4
2018-11-10T09:05:17.249Z,642.5
2018-11-10T09:06:19.677Z,642.4
2018-11-10T09:07:22.125Z,642.4
2018-11-10T09:08:24.283Z,642.3
2018-11-10T09:09:26.449Z,642.3
2018-11-10T09:10:28.875Z,642.3
2018-11-10T09:11:31.370Z,642.4
2018-11-10T09:12:33.506Z,642.2
2018-11-10T09:13:35.642Z,642.8
2018-11-10T09:14:37.796Z,642.4
2018-11-10T09:15:40.279Z,642.8
2018-11-10T09:16:42.457Z,642.5
2018-11-10T09:17:45.083Z,642.5
2018-11-10T09:18:47.544Z,643
2018-11-10T09:19:49.968Z,642.8
2018-11-10T09:20:51.842Z,643.1
2018-11-10T09:21:54.000Z,643.7
2018-11-10T09:22:56.141Z,643.5
2018-11-10T09:23:58.314Z,643.6
2018-11-10T09:25:00.760Z,643.5
2018-11-10T09:26:02.910Z,643.3
2018-11-10T09:27:05.064Z,643.1
2018-11-10T09:28:07.501Z,643.4
2018-11-10T09:29:09.394Z,643.4
2018-11-10T09:30:11.279Z,643
2018-11-10T09:31:13.184Z,643.1
2018-11-10T09:32:15.348Z,643.2
2018-11-10T09:33:17.204Z,643.5
2018-11-10T09:34:19.639Z,643.3
2018-11-10T09:35:22.094Z,643.5
2018-11-10T09:36:23.864Z,643.6
2018-11-10T09:37:25.934Z,643.5
2018-11-10T09:38:28.367Z,643.8
2018-11-10T09:39:30.530Z,643.7
2018-11-10T09:40:32.393Z,643.8
2018-11-10T09:41:34.545Z,643.9
2018-11-10T09:42:37.779Z,644
2018-11-10T09:43:40.376Z,643.9
2018-11-10T09:44:42.808Z,644.3
2018-11-10T09:45:44.685Z,643.9
2018-11-10T09:46:46.561Z,644.1
2018-11-10T09:47:48.423Z,644.1
2018-11-10T09:48:50.588Z,644.1
2018-11-10T09:49:52.627Z,644.7
2018-11-10T09:50:55.264Z,644.6
2018-11-10T09:51:57.785Z,644.5
2018-11-10T09:52:59.954Z,644.3
2018-11-10T09:54:01.852Z,643.9
2018-11-10T09:55:03.772Z,644
2018-11-10T09:56:06.201Z,643.9
2018-11-10T09:57:08.351Z,644.4
2018-11-10T09:58:10.517Z,644.3
2018-11-10T09:59:12.956Z,644.4
2018-11-10T10:00:15.135Z,644.6
2018-11-10T10:01:18.950Z,644.5
2018-11-10T10:02:22.746Z,644.7
2018-11-10T10:03:24.918Z,644.8
2018-11-10T10:04:27.071Z,645.2
2018-11-10T10:05:29.270Z,645.2
2018-11-10T10:06:31.424Z,645
2018-11-10T10:07:33.570Z,645.5
2018-11-10T10:08:35.863Z,645.2
2018-11-10T10:09:38.292Z,644.8
2018-11-10T10:10:40.730Z,644.8
2018-11-10T10:11:43.156Z,645.5
2018-11-10T10:12:45.315Z,645.3
2018-11-10T10:13:47.751Z,645.9
2018-11-10T10:14:49.906Z,645.8
2018-11-10T10:15:52.245Z,645
2018-11-10T10:16:54.110Z,645.5
2018-11-10T10:17:55.452Z,645.3
2018-11-10T10:18:57.875Z,646.3
2018-11-10T10:20:00.055Z,646.2
2018-11-10T10:21:02.477Z,646.1
2018-11-10T10:22:03.800Z,646.4
2018-11-10T10:23:06.247Z,646.2
2018-11-10T10:24:08.416Z,646.2
2018-11-10T10:25:10.294Z,646.6
2018-11-10T10:26:12.740Z,646.8
2018-11-10T10:27:14.620Z,647.5
2018-11-10T10:28:16.972Z,647.7
2018-11-10T10:29:19.190Z,647.8
2018-11-10T10:30:21.334Z,648.1
2018-11-10T10:31:22.935Z,648.3
2018-11-10T10:32:24.540Z,648.6
2018-11-10T10:33:26.678Z,648.8
2018-11-10T10:34:29.826Z,649.1
2018-11-10T10:35:33.515Z,649.1
2018-11-10T10:36:35.600Z,649
2018-11-10T10:37:37.216Z,649.1
2018-11-10T10:38:39.362Z,648.9
2018-11-10T10:39:41.256Z,649
2018-11-10T10:40:43.444Z,649.1
2018-11-10T10:41:45.602Z,649.5
2018-11-10T10:42:48.045Z,649.7
2018-11-10T10:43:50.467Z,649.7
2018-11-10T10:44:52.894Z,650
2018-11-10T10:45:55.062Z,649.8
2018-11-10T10:46:57.251Z,649.6
2018-11-10T10:47:59.414Z,649.8
2018-11-10T10:49:02.004Z,650.2
2018-11-10T10:50:04.228Z,649.8
2018-11-10T10:51:06.109Z,650.2
2018-11-10T10:52:08.533Z,650.4
2018-11-10T10:53:10.966Z,650.6
2018-11-10T10:54:12.580Z,650.4
2018-11-10T10:55:14.730Z,650.9
2018-11-10T10:56:16.932Z,651.1
2018-11-10T10:57:19.436Z,651.3
2018-11-10T10:58:21.864Z,651.3
2018-11-10T10:59:24.033Z,651.9
2018-11-10T11:00:25.913Z,651.5
2018-11-10T11:01:28.068Z,651.6
2018-11-10T11:02:30.510Z,651.6
2018-11-10T11:03:33.437Z,651.6
2018-11-10T11:04:35.327Z,651.4
2018-11-10T11:05:37.195Z,651.6
2018-11-10T11:06:39.343Z,651.6
2018-11-10T11:07:41.779Z,651.6
2018-11-10T11:08:43.939Z,652.3
2018-11-10T11:09:47.205Z,651.7
2018-11-10T11:10:49.789Z,651.9
2018-11-10T11:11:51.953Z,652.5
2018-11-10T11:12:54.381Z,652.5
2018-11-10T11:13:56.270Z,652.5
2018-11-10T11:14:58.743Z,652.8
2018-11-10T11:16:01.169Z,652.6
2018-11-10T11:17:03.615Z,652.6
2018-11-10T11:18:05.522Z,652.7
2018-11-10T11:19:07.409Z,652.5
2018-11-10T11:20:09.856Z,652.7
2018-11-10T11:21:12.297Z,653.1
2018-11-10T11:22:14.728Z,653.3
2018-11-10T11:23:16.584Z,653.5
2018-11-10T11:24:18.771Z,653.9
2018-11-10T11:25:20.633Z,654
2018-11-10T11:26:22.240Z,654.3
2018-11-10T11:27:24.385Z,653.7
2018-11-10T11:28:26.816Z,654.2
2018-11-10T11:29:29.805Z,654.2
2018-11-10T11:30:31.987Z,653.8
2018-11-10T11:31:34.154Z,654
2018-11-10T11:32:36.058Z,653.8
2018-11-10T11:33:38.261Z,653.7
2018-11-10T11:34:40.157Z,653.9
2018-11-10T11:35:42.587Z,653.8
2018-11-10T11:36:44.479Z,654.2
2018-11-10T11:37:46.924Z,654.2
2018-11-10T11:38:48.820Z,654.2
2018-11-10T11:39:51.264Z,654
2018-11-10T11:40:53.206Z,654
2018-11-10T11:41:55.757Z,654.4
2018-11-10T11:42:57.668Z,655
2018-11-10T11:43:59.534Z,655
2018-11-10T11:45:01.708Z,655.4
2018-11-10T11:46:04.144Z,655.1
2018-11-10T11:47:05.745Z,655.3
2018-11-10T11:48:07.370Z,655.5
2018-11-10T11:49:09.522Z,655.8
2018-11-10T11:50:11.124Z,655.4
2018-11-10T11:51:13.340Z,655.3
2018-11-10T11:52:15.777Z,655.4
2018-11-10T11:53:18.207Z,655.8
2018-11-10T11:54:20.361Z,655.8
2018-11-10T11:55:22.799Z,655.8
2018-11-10T11:56:24.964Z,655.7
2018-11-10T11:57:27.191Z,655.6
2018-11-10T11:58:30.233Z,655.5
2018-11-10T11:59:32.133Z,655.6
2018-11-10T12:00:34.300Z,655.7
2018-11-10T12:01:36.757Z,655.7
2018-11-10T12:02:38.915Z,655.8
2018-11-10T12:03:41.064Z,655.7
2018-11-10T12:04:43.494Z,655.7
2018-11-10T12:05:45.595Z,655.5
2018-11-10T12:06:47.760Z,656.1
2018-11-10T12:07:50.192Z,655.8
2018-11-10T12:08:52.619Z,655.4
2018-11-10T12:09:54.478Z,655.8
2018-11-10T12:10:56.345Z,656
2018-11-10T12:11:58.527Z,655.7
2018-11-10T12:13:00.969Z,655.8
2018-11-10T12:14:03.123Z,656.1
2018-11-10T12:15:05.760Z,655.9
2018-11-10T12:16:07.854Z,655.9
2018-11-10T12:17:09.744Z,655.8
2018-11-10T12:18:11.925Z,655.6
2018-11-10T12:19:14.091Z,656
2018-11-10T12:20:16.523Z,656.1
2018-11-10T12:21:18.711Z,656.3
2018-11-10T12:22:20.628Z,656.2
2018-11-10T12:23:23.061Z,656.5
2018-11-10T12:24:25.212Z,656.3
2018-11-10T12:25:27.671Z,656.5
2018-11-10T12:26:30.100Z,656.2
2018-11-10T12:27:32.263Z,656.3
2018-11-10T12:28:34.137Z,656
2018-11-10T12:29:36.026Z,656.5
2018-11-10T12:30:38.465Z,656.4
2018-11-10T12:31:41.127Z,656.5
2018-11-10T12:32:42.413Z,655.9
2018-11-10T12:33:44.296Z,656.1
2018-11-10T12:34:46.748Z,656.3
2018-11-10T12:35:49.213Z,656.3
2018-11-10T12:36:51.401Z,656.4
2018-11-10T12:37:53.286Z,656
2018-11-10T12:38:56.198Z,655.7
2018-11-10T12:39:58.179Z,655.8
2018-11-10T12:41:00.068Z,656.1
2018-11-10T12:42:02.199Z,655.9
2018-11-10T12:43:04.090Z,656.1
2018-11-10T12:44:05.701Z,656.1
2018-11-10T12:45:07.879Z,655.9
2018-11-10T12:46:10.049Z,655.8
2018-11-10T12:47:12.220Z,656
2018-11-10T12:48:14.671Z,655.9
2018-11-10T12:49:16.642Z,655.9
2018-11-10T12:50:18.609Z,656.2
2018-11-10T12:51:21.046Z,656.1
2018-11-10T12:52:23.747Z,655.8
2018-11-10T12:53:25.908Z,655.3
2018-11-10T12:54:28.342Z,655.8
2018-11-10T12:55:30.778Z,656.2
2018-11-10T12:56:33.400Z,655.9
2018-11-10T12:57:35.590Z,655.8
2018-11-10T12:58:38.040Z,655.9
2018-11-10T12:59:40.488Z,655.9
2018-11-10T13:00:42.403Z,656.2
2018-11-10T13:01:44.828Z,655.7
2018-11-10T13:02:46.985Z,655.5
2018-11-10T13:03:49.461Z,655.6
2018-11-10T13:04:51.920Z,655.7
2018-11-10T13:05:54.075Z,655.8
2018-11-10T13:06:56.363Z,655.9
2018-11-10T13:07:58.640Z,655.8
2018-11-10T13:09:00.607Z,655.4
2018-11-10T13:10:02.805Z,655.4
2018-11-10T13:11:05.164Z,655.7
2018-11-10T13:12:07.806Z,655.7
2018-11-10T13:13:09.711Z,655.6
2018-11-10T13:14:11.599Z,655.5
2018-11-10T13:15:13.758Z,655.7
2018-11-10T13:16:16.353Z,655.6
2018-11-10T13:17:18.804Z,655.6
2018-11-10T13:18:21.293Z,655.6
2018-11-10T13:19:23.178Z,655.7
2018-11-10T13:20:25.805Z,655.4
2018-11-10T13:21:28.028Z,655.8
2018-11-10T13:22:29.929Z,656
2018-11-10T13:23:31.822Z,655.8
2018-11-10T13:24:33.992Z,655.9
2018-11-10T13:25:35.867Z,655.5